sensor_id;sensor_type;location;lat;lon;timestamp;pressure;altitude;pressure_sealevel;temperature;humidity
57827;BME280;43656;57.746;11.780;2024-03-02T00:00:06;100790.34;;;6.29;100.00
57827;BME280;43656;57.746;11.780;2024-03-02T00:02:43;100800.16;;;6.29;100.00
57827;BME280;43656;57.746;11.780;2024-03-02T00:05:14;100796.84;;;6.27;100.00
57827;BME280;43656;57.746;11.780;2024-03-02T00:07:45;100792.53;;;6.26;100.00
57827;BME280;43656;57.746;11.780;2024-03-02T00:10:16;100792.53;;;6.26;100.00
57827;BME280;43656;57.746;11.780;2024-03-02T00:12:42;100782.19;;;6.23;100.00
57827;BME280;43656;57.746;11.780;2024-03-02T00:18:14;100791.38;;;6.20;100.00
57827;BME280;43656;57.746;11.780;2024-03-02T00:20:42;100779.50;;;6.15;100.00
57827;BME280;43656;57.746;11.780;2024-03-02T00:23:08;100795.38;;;6.16;100.00
57827;BME280;43656;57.746;11.780;2024-03-02T00:28:05;100797.56;;;6.13;100.00
57827;BME280;43656;57.746;11.780;2024-03-02T00:33:08;100800.56;;;6.09;100.00
57827;BME280;43656;57.746;11.780;2024-03-02T00:35:33;100805.91;;;6.09;100.00
57827;BME280;43656;57.746;11.780;2024-03-02T00:38:04;100797.91;;;6.09;100.00
57827;BME280;43656;57.746;11.780;2024-03-02T00:40:30;100794.06;;;6.04;100.00
57827;BME280;43656;57.746;11.780;2024-03-02T00:42:56;100796.06;;;6.02;100.00
57827;BME280;43656;57.746;11.780;2024-03-02T00:45:21;100796.41;;;5.99;100.00
57827;BME280;43656;57.746;11.780;2024-03-02T00:47:46;100799.06;;;5.99;100.00
57827;BME280;43656;57.746;11.780;2024-03-02T00:50:13;100786.03;;;5.87;100.00
57827;BME280;43656;57.746;11.780;2024-03-02T00:52:41;100801.94;;;5.97;100.00
57827;BME280;43656;57.746;11.780;2024-03-02T00:55:07;100812.59;;;5.97;100.00
57827;BME280;43656;57.746;11.780;2024-03-02T00:57:34;100805.59;;;5.96;100.00
57827;BME280;43656;57.746;11.780;2024-03-02T01:00:00;100807.75;;;5.93;100.00
57827;BME280;43656;57.746;11.780;2024-03-02T01:02:25;100808.09;;;5.89;100.00
57827;BME280;43656;57.746;11.780;2024-03-02T01:04:51;100816.25;;;5.88;100.00
57827;BME280;43656;57.746;11.780;2024-03-02T01:07:17;100818.78;;;5.89;100.00
57827;BME280;43656;57.746;11.780;2024-03-02T01:09:42;100818.09;;;5.87;100.00
57827;BME280;43656;57.746;11.780;2024-03-02T01:12:08;100814.09;;;5.83;100.00
57827;BME280;43656;57.746;11.780;2024-03-02T01:14:33;100808.91;;;5.82;100.00
57827;BME280;43656;57.746;11.780;2024-03-02T01:16:59;100813.25;;;5.83;100.00
57827;BME280;43656;57.746;11.780;2024-03-02T01:19:25;100801.06;;;5.80;100.00
57827;BME280;43656;57.746;11.780;2024-03-02T01:21:50;100810.59;;;5.75;100.00
57827;BME280;43656;57.746;11.780;2024-03-02T01:24:16;100814.94;;;5.68;100.00
57827;BME280;43656;57.746;11.780;2024-03-02T01:26:42;100808.41;;;5.62;100.00
57827;BME280;43656;57.746;11.780;2024-03-02T01:29:07;100807.44;;;5.63;100.00
57827;BME280;43656;57.746;11.780;2024-03-02T01:31:33;100789.38;;;5.49;100.00
57827;BME280;43656;57.746;11.780;2024-03-02T01:33:58;100815.75;;;5.68;100.00
57827;BME280;43656;57.746;11.780;2024-03-02T01:36:24;100825.44;;;5.69;100.00
57827;BME280;43656;57.746;11.780;2024-03-02T01:38:49;100816.25;;;5.72;100.00
57827;BME280;43656;57.746;11.780;2024-03-02T01:41:15;100824.25;;;5.72;100.00
57827;BME280;43656;57.746;11.780;2024-03-02T01:43:40;100795.75;;;5.64;100.00
57827;BME280;43656;57.746;11.780;2024-03-02T01:46:06;100802.25;;;5.70;100.00
57827;BME280;43656;57.746;11.780;2024-03-02T01:48:33;100798.56;;;5.71;100.00
57827;BME280;43656;57.746;11.780;2024-03-02T01:50:59;100805.06;;;5.68;100.00
57827;BME280;43656;57.746;11.780;2024-03-02T01:53:24;100803.09;;;5.70;100.00
57827;BME280;43656;57.746;11.780;2024-03-02T01:55:50;100798.25;;;5.74;100.00
57827;BME280;43656;57.746;11.780;2024-03-02T01:58:16;100800.91;;;5.74;100.00
57827;BME280;43656;57.746;11.780;2024-03-02T02:00:41;100794.75;;;5.73;100.00
57827;BME280;43656;57.746;11.780;2024-03-02T02:03:07;100776.88;;;5.65;100.00
57827;BME280;43656;57.746;11.780;2024-03-02T02:05:33;100786.41;;;5.76;100.00
57827;BME280;43656;57.746;11.780;2024-03-02T02:08:01;100785.53;;;5.76;100.00
57827;BME280;43656;57.746;11.780;2024-03-02T02:10:26;100788.22;;;5.76;100.00
57827;BME280;43656;57.746;11.780;2024-03-02T02:12:52;100782.88;;;5.76;100.00
57827;BME280;43656;57.746;11.780;2024-03-02T02:17:49;100783.22;;;5.73;100.00
57827;BME280;43656;57.746;11.780;2024-03-02T02:20:14;100784.06;;;5.73;100.00
57827;BME280;43656;57.746;11.780;2024-03-02T02:22:40;100782.22;;;5.65;100.00
57827;BME280;43656;57.746;11.780;2024-03-02T02:25:05;100775.91;;;5.67;100.00
57827;BME280;43656;57.746;11.780;2024-03-02T02:27:31;100774.53;;;5.62;100.00
57827;BME280;43656;57.746;11.780;2024-03-02T02:29:56;100777.91;;;5.56;100.00
57827;BME280;43656;57.746;11.780;2024-03-02T02:32:22;100762.88;;;5.47;100.00
57827;BME280;43656;57.746;11.780;2024-03-02T02:34:52;100776.53;;;5.52;100.00
57827;BME280;43656;57.746;11.780;2024-03-02T02:37:17;100767.72;;;5.52;100.00
57827;BME280;43656;57.746;11.780;2024-03-02T02:39:43;100762.88;;;5.47;100.00
57827;BME280;43656;57.746;11.780;2024-03-02T02:42:08;100764.22;;;5.51;100.00
57827;BME280;43656;57.746;11.780;2024-03-02T02:44:34;100766.69;;;5.53;100.00
57827;BME280;43656;57.746;11.780;2024-03-02T02:47:00;100764.22;;;5.51;100.00
57827;BME280;43656;57.746;11.780;2024-03-02T02:49:26;100758.38;;;5.48;100.00
57827;BME280;43656;57.746;11.780;2024-03-02T02:51:52;100757.88;;;5.44;100.00
57827;BME280;43656;57.746;11.780;2024-03-02T02:54:17;100750.19;;;5.41;100.00
57827;BME280;43656;57.746;11.780;2024-03-02T02:56:43;100730.38;;;5.44;100.00
57827;BME280;43656;57.746;11.780;2024-03-02T02:59:08;100731.34;;;5.42;100.00
57827;BME280;43656;57.746;11.780;2024-03-02T03:01:34;100734.19;;;5.41;100.00
57827;BME280;43656;57.746;11.780;2024-03-02T03:03:59;100731.53;;;5.41;100.00
57827;BME280;43656;57.746;11.780;2024-03-02T03:06:24;100725.34;;;5.40;100.00
57827;BME280;43656;57.746;11.780;2024-03-02T03:08:50;100725.84;;;5.44;100.00
57827;BME280;43656;57.746;11.780;2024-03-02T03:11:17;100731.00;;;5.46;100.00
57827;BME280;43656;57.746;11.780;2024-03-02T03:13:42;100730.19;;;5.45;100.00
57827;BME280;43656;57.746;11.780;2024-03-02T03:16:08;100727.50;;;5.45;100.00
57827;BME280;43656;57.746;11.780;2024-03-02T03:18:33;100733.84;;;5.44;100.00
57827;BME280;43656;57.746;11.780;2024-03-02T03:20:59;100706.16;;;5.29;100.00
57827;BME280;43656;57.746;11.780;2024-03-02T03:23:24;100736.34;;;5.46;100.00
57827;BME280;43656;57.746;11.780;2024-03-02T03:25:51;100735.69;;;5.44;100.00
57827;BME280;43656;57.746;11.780;2024-03-02T03:28:16;100739.34;;;5.42;100.00
57827;BME280;43656;57.746;11.780;2024-03-02T03:30:41;100729.19;;;5.38;100.00
57827;BME280;43656;57.746;11.780;2024-03-02T03:33:07;100743.22;;;5.40;100.00
57827;BME280;43656;57.746;11.780;2024-03-02T03:35:32;100730.34;;;5.35;100.00
57827;BME280;43656;57.746;11.780;2024-03-02T03:37:58;100739.38;;;5.34;100.00
57827;BME280;43656;57.746;11.780;2024-03-02T03:40:23;100737.72;;;5.33;100.00
57827;BME280;43656;57.746;11.780;2024-03-02T03:42:49;100714.53;;;5.17;100.00
57827;BME280;43656;57.746;11.780;2024-03-02T03:45:15;100733.19;;;5.26;100.00
57827;BME280;43656;57.746;11.780;2024-03-02T03:47:41;100741.50;;;5.23;100.00
57827;BME280;43656;57.746;11.780;2024-03-02T03:50:08;100738.34;;;5.19;100.00
57827;BME280;43656;57.746;11.780;2024-03-02T03:52:33;100739.50;;;5.16;100.00
57827;BME280;43656;57.746;11.780;2024-03-02T03:54:59;100720.84;;;5.00;100.00
57827;BME280;43656;57.746;11.780;2024-03-02T03:57:26;100743.84;;;5.09;100.00
57827;BME280;43656;57.746;11.780;2024-03-02T03:59:51;100725.13;;;4.93;100.00
57827;BME280;43656;57.746;11.780;2024-03-02T04:02:17;100750.19;;;5.00;100.00
57827;BME280;43656;57.746;11.780;2024-03-02T04:04:42;100755.50;;;5.00;100.00
57827;BME280;43656;57.746;11.780;2024-03-02T04:07:08;100752.16;;;4.98;100.00
57827;BME280;43656;57.746;11.780;2024-03-02T04:09:34;100751.84;;;5.01;100.00
57827;BME280;43656;57.746;11.780;2024-03-02T04:11:59;100754.31;;;5.03;100.00
57827;BME280;43656;57.746;11.780;2024-03-02T04:14:25;100721.13;;;4.89;100.00
57827;BME280;43656;57.746;11.780;2024-03-02T04:16:50;100740.84;;;5.04;100.00
57827;BME280;43656;57.746;11.780;2024-03-02T04:19:15;100732.00;;;5.04;100.00
57827;BME280;43656;57.746;11.780;2024-03-02T04:21:41;100733.16;;;5.01;100.00
57827;BME280;43656;57.746;11.780;2024-03-02T04:24:06;100733.66;;;4.97;100.00
57827;BME280;43656;57.746;11.780;2024-03-02T04:26:32;100733.13;;;4.93;100.00
57827;BME280;43656;57.746;11.780;2024-03-02T04:28:59;100725.66;;;4.88;100.00
57827;BME280;43656;57.746;11.780;2024-03-02T04:31:24;100700.47;;;4.75;100.00
57827;BME280;43656;57.746;11.780;2024-03-02T04:33:49;100719.81;;;4.85;100.00
57827;BME280;43656;57.746;11.780;2024-03-02T04:36:15;100714.81;;;4.82;100.00
57827;BME280;43656;57.746;11.780;2024-03-02T04:38:40;100688.44;;;4.62;100.00
57827;BME280;43656;57.746;11.780;2024-03-02T04:41:06;100711.13;;;4.75;100.00
57827;BME280;43656;57.746;11.780;2024-03-02T04:43:32;100706.81;;;4.74;100.00
57827;BME280;43656;57.746;11.780;2024-03-02T04:45:58;100713.94;;;4.73;100.00
57827;BME280;43656;57.746;11.780;2024-03-02T04:48:24;100715.13;;;4.70;100.00
57827;BME280;43656;57.746;11.780;2024-03-02T04:50:50;100713.44;;;4.69;100.00
57827;BME280;43656;57.746;11.780;2024-03-02T04:53:15;100717.94;;;4.69;100.00
57827;BME280;43656;57.746;11.780;2024-03-02T04:55:40;100717.44;;;4.65;100.00
57827;BME280;43656;57.746;11.780;2024-03-02T04:58:06;100720.41;;;4.62;100.00
57827;BME280;43656;57.746;11.780;2024-03-02T05:00:34;100700.75;;;4.47;100.00
57827;BME280;43656;57.746;11.780;2024-03-02T05:03:00;100707.22;;;4.53;100.00
57827;BME280;43656;57.746;11.780;2024-03-02T05:05:27;100713.56;;;4.52;100.00
57827;BME280;43656;57.746;11.780;2024-03-02T05:07:52;100705.22;;;4.46;100.00
57827;BME280;43656;57.746;11.780;2024-03-02T05:10:18;100718.56;;;4.55;100.00
57827;BME280;43656;57.746;11.780;2024-03-02T05:12:43;100685.03;;;4.36;100.00
57827;BME280;43656;57.746;11.780;2024-03-02T05:15:13;100707.22;;;4.53;100.00
57827;BME280;43656;57.746;11.780;2024-03-02T05:17:40;100721.38;;;4.53;100.00
57827;BME280;43656;57.746;11.780;2024-03-02T05:20:08;100718.41;;;4.56;100.00
57827;BME280;43656;57.746;11.780;2024-03-02T05:22:34;100713.91;;;4.57;100.00
57827;BME280;43656;57.746;11.780;2024-03-02T05:25:00;100712.59;;;4.61;100.00
57827;BME280;43656;57.746;11.780;2024-03-02T05:27:27;100704.59;;;4.61;100.00
57827;BME280;43656;57.746;11.780;2024-03-02T05:29:52;100718.75;;;4.61;100.00
57827;BME280;43656;57.746;11.780;2024-03-02T05:32:18;100722.06;;;4.63;100.00
57827;BME280;43656;57.746;11.780;2024-03-02T05:34:43;100718.44;;;4.64;100.00
57827;BME280;43656;57.746;11.780;2024-03-02T05:37:08;100710.91;;;4.60;100.00
57827;BME280;43656;57.746;11.780;2024-03-02T05:39:34;100720.09;;;4.65;100.00
57827;BME280;43656;57.746;11.780;2024-03-02T05:41:59;100701.44;;;4.57;100.00
57827;BME280;43656;57.746;11.780;2024-03-02T05:44:24;100718.25;;;4.66;100.00
57827;BME280;43656;57.746;11.780;2024-03-02T05:46:50;100712.94;;;4.66;100.00
57827;BME280;43656;57.746;11.780;2024-03-02T05:49:15;100721.59;;;4.68;100.00
57827;BME280;43656;57.746;11.780;2024-03-02T05:51:41;100718.44;;;4.64;100.00
57827;BME280;43656;57.746;11.780;2024-03-02T05:54:06;100708.41;;;4.58;100.00
57827;BME280;43656;57.746;11.780;2024-03-02T05:56:32;100726.56;;;4.63;100.00
57827;BME280;43656;57.746;11.780;2024-03-02T05:58:58;100717.75;;;4.62;100.00
57827;BME280;43656;57.746;11.780;2024-03-02T06:01:41;100720.75;;;4.59;100.00
57827;BME280;43656;57.746;11.780;2024-03-02T06:04:08;100716.41;;;4.58;100.00
57827;BME280;43656;57.746;11.780;2024-03-02T06:06:34;100717.09;;;4.60;100.00
57827;BME280;43656;57.746;11.780;2024-03-02T06:09:03;100721.88;;;4.57;100.00
57827;BME280;43656;57.746;11.780;2024-03-02T06:11:49;100714.06;;;4.55;100.00
57827;BME280;43656;57.746;11.780;2024-03-02T06:14:16;100712.75;;;4.59;100.00
57827;BME280;43656;57.746;11.780;2024-03-02T06:16:42;100708.41;;;4.58;100.00
57827;BME280;43656;57.746;11.780;2024-03-02T06:19:07;100687.88;;;4.42;100.00
57827;BME280;43656;57.746;11.780;2024-03-02T06:21:32;100708.56;;;4.57;100.00
57827;BME280;43656;57.746;11.780;2024-03-02T06:23:58;100720.09;;;4.57;100.00
57827;BME280;43656;57.746;11.780;2024-03-02T06:26:24;100684.22;;;4.43;100.00
57827;BME280;43656;57.746;11.780;2024-03-02T06:28:49;100704.25;;;4.56;100.00
57827;BME280;43656;57.746;11.780;2024-03-02T06:31:15;100718.13;;;4.67;100.00
57827;BME280;43656;57.746;11.780;2024-03-02T06:33:40;100710.78;;;4.69;100.00
57827;BME280;43656;57.746;11.780;2024-03-02T06:36:06;100714.44;;;4.77;100.00
57827;BME280;43656;57.746;11.780;2024-03-02T06:38:36;100716.78;;;4.80;100.00
57827;BME280;43656;57.746;11.780;2024-03-02T06:41:02;100722.63;;;4.83;100.00
57827;BME280;43656;57.746;11.780;2024-03-02T06:43:27;100721.31;;;4.87;100.00
57827;BME280;43656;57.746;11.780;2024-03-02T06:45:53;100719.16;;;4.91;100.00
57827;BME280;43656;57.746;11.780;2024-03-02T06:48:19;100713.16;;;4.97;100.00
57827;BME280;43656;57.746;11.780;2024-03-02T06:50:49;100714.31;;;5.03;100.00
57827;BME280;43656;57.746;11.780;2024-03-02T06:53:15;100715.84;;;5.05;100.00
57827;BME280;43656;57.746;11.780;2024-03-02T06:55:45;100706.50;;;5.09;100.00
57827;BME280;43656;57.746;11.780;2024-03-02T06:58:13;100679.81;;;4.93;100.00
57827;BME280;43656;57.746;11.780;2024-03-02T07:00:40;100692.66;;;5.06;100.00
57827;BME280;43656;57.746;11.780;2024-03-02T07:03:06;100712.16;;;5.23;100.00
57827;BME280;43656;57.746;11.780;2024-03-02T07:05:31;100698.00;;;5.14;100.00
57827;BME280;43656;57.746;11.780;2024-03-02T07:07:57;100699.50;;;5.25;100.00
57827;BME280;43656;57.746;11.780;2024-03-02T07:10:22;100695.50;;;5.29;100.00
57827;BME280;43656;57.746;11.780;2024-03-02T07:12:48;100715.50;;;5.41;100.00
57827;BME280;43656;57.746;11.780;2024-03-02T07:15:13;100710.84;;;5.43;100.00
57827;BME280;43656;57.746;11.780;2024-03-02T07:17:57;100713.69;;;5.50;100.00
57827;BME280;43656;57.746;11.780;2024-03-02T07:20:22;100713.31;;;5.53;100.00
57827;BME280;43656;57.746;11.780;2024-03-02T07:22:48;100719.81;;;5.58;100.00
57827;BME280;43656;57.746;11.780;2024-03-02T07:25:13;100718.47;;;5.62;100.00
57827;BME280;43656;57.746;11.780;2024-03-02T07:27:39;100707.97;;;5.69;100.00
57827;BME280;43656;57.746;11.780;2024-03-02T07:30:07;100717.47;;;5.72;100.00
57827;BME280;43656;57.746;11.780;2024-03-02T07:32:33;100699.78;;;5.71;100.00
57827;BME280;43656;57.746;11.780;2024-03-02T07:34:59;100710.78;;;5.84;100.00
57827;BME280;43656;57.746;11.780;2024-03-02T07:37:26;100709.94;;;5.83;100.00
57827;BME280;43656;57.746;11.780;2024-03-02T07:39:52;100717.63;;;5.86;100.00
57827;BME280;43656;57.746;11.780;2024-03-02T07:42:17;100691.75;;;5.79;100.00
57827;BME280;43656;57.746;11.780;2024-03-02T07:44:46;100708.78;;;5.94;100.00
57827;BME280;43656;57.746;11.780;2024-03-02T07:47:11;100693.59;;;5.86;100.00
57827;BME280;43656;57.746;11.780;2024-03-02T07:49:36;100706.75;;;6.04;100.00
57827;BME280;43656;57.746;11.780;2024-03-02T07:52:02;100687.53;;;6.09;100.00
57827;BME280;43656;57.746;11.780;2024-03-02T07:54:28;100696.06;;;6.04;100.00
57827;BME280;43656;57.746;11.780;2024-03-02T07:56:53;100709.03;;;6.16;100.00
57827;BME280;43656;57.746;11.780;2024-03-02T07:59:19;100705.03;;;6.20;100.00
57827;BME280;43656;57.746;11.780;2024-03-02T08:01:44;100706.69;;;6.21;100.00
57827;BME280;43656;57.746;11.780;2024-03-02T08:04:10;100705.53;;;6.23;100.00
57827;BME280;43656;57.746;11.780;2024-03-02T08:06:35;100704.66;;;6.31;100.00
57827;BME280;43656;57.746;11.780;2024-03-02T08:09:01;100703.28;;;6.35;100.00
57827;BME280;43656;57.746;11.780;2024-03-02T08:11:27;100708.94;;;6.40;100.00
57827;BME280;43656;57.746;11.780;2024-03-02T08:13:52;100682.91;;;6.34;100.00
57827;BME280;43656;57.746;11.780;2024-03-02T08:16:20;100713.56;;;6.54;100.00
57827;BME280;43656;57.746;11.780;2024-03-02T08:18:50;100710.72;;;6.56;100.00
57827;BME280;43656;57.746;11.780;2024-03-02T08:21:16;100699.69;;;6.51;100.00
57827;BME280;43656;57.746;11.780;2024-03-02T08:23:42;100709.16;;;6.62;100.00
57827;BME280;43656;57.746;11.780;2024-03-02T08:26:08;100701.47;;;6.67;100.00
57827;BME280;43656;57.746;11.780;2024-03-02T08:28:34;100703.25;;;6.74;100.00
57827;BME280;43656;57.746;11.780;2024-03-02T08:30:59;100712.75;;;6.77;100.00
57827;BME280;43656;57.746;11.780;2024-03-02T08:33:25;100706.03;;;6.81;100.00
57827;BME280;43656;57.746;11.780;2024-03-02T08:35:51;100666.72;;;6.58;100.00
57827;BME280;43656;57.746;11.780;2024-03-02T08:38:16;100709.03;;;6.86;100.00
57827;BME280;43656;57.746;11.780;2024-03-02T08:40:42;100694.97;;;6.92;100.00
57827;BME280;43656;57.746;11.780;2024-03-02T08:43:07;100704.44;;;6.95;100.00
57827;BME280;43656;57.746;11.780;2024-03-02T08:45:32;100697.25;;;6.95;100.00
57827;BME280;43656;57.746;11.780;2024-03-02T08:48:00;100701.25;;;6.99;100.00
57827;BME280;43656;57.746;11.780;2024-03-02T08:50:25;100705.41;;;7.02;100.00
57827;BME280;43656;57.746;11.780;2024-03-02T08:52:51;100700.53;;;7.05;100.00
57827;BME280;43656;57.746;11.780;2024-03-02T08:55:16;100702.19;;;7.06;100.00
57827;BME280;43656;57.746;11.780;2024-03-02T08:57:41;100692.44;;;7.14;100.00
57827;BME280;43656;57.746;11.780;2024-03-02T09:00:07;100695.81;;;7.30;100.00
57827;BME280;43656;57.746;11.780;2024-03-02T09:02:34;100695.66;;;7.32;100.00
57827;BME280;43656;57.746;11.780;2024-03-02T09:04:59;100696.59;;;7.39;100.00
57827;BME280;43656;57.746;11.780;2024-03-02T09:07:25;100687.06;;;7.37;100.00
57827;BME280;43656;57.746;11.780;2024-03-02T09:09:50;100694.53;;;7.41;100.00
57827;BME280;43656;57.746;11.780;2024-03-02T09:12:16;100691.88;;;7.41;100.00
57827;BME280;43656;57.746;11.780;2024-03-02T09:14:41;100690.31;;;7.47;100.00
57827;BME280;43656;57.746;11.780;2024-03-02T09:17:07;100666.78;;;7.42;100.00
57827;BME280;43656;57.746;11.780;2024-03-02T09:19:33;100697.00;;;7.66;100.00
57827;BME280;43656;57.746;11.780;2024-03-02T09:21:58;100685.94;;;7.69;100.00
57827;BME280;43656;57.746;11.780;2024-03-02T09:24:24;100687.69;;;7.76;100.00
57827;BME280;43656;57.746;11.780;2024-03-02T09:26:50;100690.16;;;7.78;100.00
57827;BME280;43656;57.746;11.780;2024-03-02T09:29:15;100687.22;;;7.73;100.00
57827;BME280;43656;57.746;11.780;2024-03-02T09:31:41;100699.78;;;7.87;100.00
57827;BME280;43656;57.746;11.780;2024-03-02T09:34:07;100696.38;;;7.93;100.00
57827;BME280;43656;57.746;11.780;2024-03-02T09:36:32;100697.66;;;7.97;100.00
57827;BME280;43656;57.746;11.780;2024-03-02T09:38:58;100695.94;;;8.05;100.00
57827;BME280;43656;57.746;11.780;2024-03-02T09:41:23;100698.69;;;8.11;100.00
57827;BME280;43656;57.746;11.780;2024-03-02T09:43:49;100697.22;;;8.09;100.00
57827;BME280;43656;57.746;11.780;2024-03-02T09:46:15;100693.06;;;8.06;100.00
57827;BME280;43656;57.746;11.780;2024-03-02T09:48:41;100697.59;;;8.06;100.00
57827;BME280;43656;57.746;11.780;2024-03-02T09:51:07;100661.66;;;7.85;100.00
57827;BME280;43656;57.746;11.780;2024-03-02T09:53:34;100675.13;;;7.92;100.00
57827;BME280;43656;57.746;11.780;2024-03-02T09:56:00;100698.50;;;8.13;100.00
57827;BME280;43656;57.746;11.780;2024-03-02T09:58:26;100672.09;;;7.95;100.00
57827;BME280;43656;57.746;11.780;2024-03-02T10:00:51;100689.16;;;8.09;100.00
57827;BME280;43656;57.746;11.780;2024-03-02T10:03:18;100690.81;;;8.10;100.00
57827;BME280;43656;57.746;11.780;2024-03-02T10:05:44;100694.78;;;8.14;100.00
57827;BME280;43656;57.746;11.780;2024-03-02T10:08:11;100701.47;;;8.18;100.00
57827;BME280;43656;57.746;11.780;2024-03-02T10:10:38;100694.53;;;8.09;100.00
57827;BME280;43656;57.746;11.780;2024-03-02T10:13:11;100699.53;;;8.12;100.00
57827;BME280;43656;57.746;11.780;2024-03-02T10:15:38;100700.16;;;8.14;100.00
57827;BME280;43656;57.746;11.780;2024-03-02T10:18:08;100695.81;;;8.13;100.00
57827;BME280;43656;57.746;11.780;2024-03-02T10:20:34;100696.66;;;8.13;100.00
57827;BME280;43656;57.746;11.780;2024-03-02T10:23:13;100689.53;;;8.06;100.00
57827;BME280;43656;57.746;11.780;2024-03-02T10:25:39;100702.47;;;8.17;100.00
57827;BME280;43656;57.746;11.780;2024-03-02T10:28:05;100701.63;;;8.16;100.00
57827;BME280;43656;57.746;11.780;2024-03-02T10:30:31;100705.59;;;8.20;100.00
57827;BME280;43656;57.746;11.780;2024-03-02T10:32:57;100689.88;;;8.17;100.00
57827;BME280;43656;57.746;11.780;2024-03-02T10:35:23;100695.63;;;8.14;100.00
57827;BME280;43656;57.746;11.780;2024-03-02T10:37:49;100696.28;;;8.16;100.00
57827;BME280;43656;57.746;11.780;2024-03-02T10:40:15;100692.31;;;8.12;100.00
57827;BME280;43656;57.746;11.780;2024-03-02T10:42:44;100660.59;;;8.01;100.00
57827;BME280;43656;57.746;11.780;2024-03-02T10:45:11;100692.94;;;8.14;100.00
57827;BME280;43656;57.746;11.780;2024-03-02T10:47:38;100627.28;;;7.74;100.00
57827;BME280;43656;57.746;11.780;2024-03-02T10:50:07;100698.59;;;8.19;100.00
57827;BME280;43656;57.746;11.780;2024-03-02T10:52:34;100694.13;;;8.27;100.00
57827;BME280;43656;57.746;11.780;2024-03-02T10:55:00;100697.03;;;8.25;100.00
57827;BME280;43656;57.746;11.780;2024-03-02T10:57:26;100697.66;;;8.27;100.00
57827;BME280;43656;57.746;11.780;2024-03-02T11:00:02;100692.75;;;8.31;100.00
57827;BME280;43656;57.746;11.780;2024-03-02T11:02:30;100692.13;;;8.29;100.00
57827;BME280;43656;57.746;11.780;2024-03-02T11:04:59;100697.28;;;8.30;100.00
57827;BME280;43656;57.746;11.780;2024-03-02T11:07:28;100692.19;;;8.35;100.00
57827;BME280;43656;57.746;11.780;2024-03-02T11:09:58;100698.56;;;8.34;100.00
57827;BME280;43656;57.746;11.780;2024-03-02T11:12:29;100696.91;;;8.33;100.00
57827;BME280;43656;57.746;11.780;2024-03-02T11:14:58;100681.47;;;8.35;100.00
57827;BME280;43656;57.746;11.780;2024-03-02T11:17:25;100664.94;;;8.17;100.00
57827;BME280;43656;57.746;11.780;2024-03-02T11:19:51;100704.22;;;8.39;100.00
57827;BME280;43656;57.746;11.780;2024-03-02T11:22:18;100686.84;;;8.35;100.00
57827;BME280;43656;57.746;11.780;2024-03-02T11:24:52;100699.97;;;8.45;100.00
57827;BME280;43656;57.746;11.780;2024-03-02T11:33:02;100701.44;;;8.47;100.00
57827;BME280;43656;57.746;11.780;2024-03-02T11:35:37;100703.28;;;8.47;100.00
57827;BME280;43656;57.746;11.780;2024-03-02T11:38:03;100706.03;;;8.54;100.00
57827;BME280;43656;57.746;11.780;2024-03-02T11:40:29;100705.41;;;8.52;100.00
57827;BME280;43656;57.746;11.780;2024-03-02T11:42:56;100677.41;;;8.39;100.00
57827;BME280;43656;57.746;11.780;2024-03-02T11:45:25;100699.22;;;8.51;100.00
57827;BME280;43656;57.746;11.780;2024-03-02T11:47:53;100704.84;;;8.56;100.00
57827;BME280;43656;57.746;11.780;2024-03-02T11:50:46;100703.13;;;8.49;100.00
57827;BME280;43656;57.746;11.780;2024-03-02T11:53:12;100698.56;;;8.49;100.00
57827;BME280;43656;57.746;11.780;2024-03-02T11:55:39;100692.56;;;8.47;100.00
57827;BME280;43656;57.746;11.780;2024-03-02T11:58:06;100715.19;;;8.59;100.00
57827;BME280;43656;57.746;11.780;2024-03-02T12:00:32;100710.22;;;8.56;100.00
57827;BME280;43656;57.746;11.780;2024-03-02T12:03:04;100712.31;;;8.61;100.00
57827;BME280;43656;57.746;11.780;2024-03-02T12:05:30;100709.03;;;8.44;100.00
57827;BME280;43656;57.746;11.780;2024-03-02T12:07:57;100710.88;;;8.43;100.00
57827;BME280;43656;57.746;11.780;2024-03-02T12:10:23;100720.28;;;8.54;100.00
57827;BME280;43656;57.746;11.780;2024-03-02T12:12:55;100722.88;;;8.47;100.00
57827;BME280;43656;57.746;11.780;2024-03-02T12:15:23;100712.81;;;8.50;100.00
57827;BME280;43656;57.746;11.780;2024-03-02T12:17:56;100702.84;;;8.43;100.00
57827;BME280;43656;57.746;11.780;2024-03-02T12:20:22;100714.22;;;8.45;100.00
57827;BME280;43656;57.746;11.780;2024-03-02T12:22:53;100720.03;;;8.49;100.00
57827;BME280;43656;57.746;11.780;2024-03-02T12:25:20;100709.97;;;8.51;100.00
57827;BME280;43656;57.746;11.780;2024-03-02T12:27:51;100718.47;;;8.55;100.00
57827;BME280;43656;57.746;11.780;2024-03-02T12:30:17;100714.75;;;8.56;100.00
57827;BME280;43656;57.746;11.780;2024-03-02T12:32:44;100714.75;;;8.56;100.00
57827;BME280;43656;57.746;11.780;2024-03-02T12:35:10;100716.53;;;8.49;100.00
57827;BME280;43656;57.746;11.780;2024-03-02T12:37:50;100722.78;;;8.56;100.00
57827;BME280;43656;57.746;11.780;2024-03-02T12:40:17;100720.69;;;8.51;100.00
57827;BME280;43656;57.746;11.780;2024-03-02T12:42:44;100718.47;;;8.55;100.00
57827;BME280;43656;57.746;11.780;2024-03-02T12:45:11;100690.91;;;8.31;100.00
57827;BME280;43656;57.746;11.780;2024-03-02T12:47:37;100722.97;;;8.54;100.00
57827;BME280;43656;57.746;11.780;2024-03-02T12:50:04;100719.09;;;8.57;100.00
57827;BME280;43656;57.746;11.780;2024-03-02T12:52:30;100727.13;;;8.57;100.00